Fort Lauderdale, FL (33335)

1:15 AM EST on January 31, 2015 (GMT -0500)
North Andrews Gardens | Change Station
CLOSE
Current Station
Personal Weather Station
Location: Fort Lauderdale, FL
Elevation: 9 ft
Nearby Weather Stations
Active Advisory: Coastal Hazard Statement

Elev 9 ft 26.18 °N, 80.14 °W | Updated 44 seconds ago

Partly Cloudy
Partly Cloudy
63.2 °F
Feels Like 63.2 °F
N
4.8
Wind Variable Wind from North
Gusts 5.3 mph

Today
High -- | Low -- °F
--% Chance of Precip.
Yesterday
High -- | Low -- °F
Precip. -- in
7:05 AM 6:02 PM
Waxing Gibbous, 87% visible
Pressure 30.16 in
Visibility 10.0 miles
Clouds Few 6000 ft
Dew Point 58 °F
Humidity 84%
Rainfall 0.00 in
Snow Depth Not available.
UV 0 out of 12
Pollen 7.10 out of 12
Air Quality Not available.
Flu Activity Not available.
METAR KFXE 310553Z AUTO 34004KT 10SM FEW060 17/13 A3015 RMK AO2 SLP213 T01720128 10206 20161 58001 TSNO

More Conditions Fewer Conditions

Pressure 30.16 in
Visibility 10.0 miles
Clouds Few 6000 ft
Dew Point 58 °F
Humidity 84%
Rainfall 0.00 in
Snow Depth Not available.
UV 0 out of 12
Pollen 7.10 out of 12
Air Quality Not available.
Flu Activity Not available.
METAR KFXE 310553Z AUTO 34004KT 10SM FEW060 17/13 A3015 RMK AO2 SLP213 T01720128 10206 20161 58001 TSNO

More Conditions Fewer Conditions

10-Day Weather Forecast

Almanac

Astronomy

Jan. 31, 2015 Rise Set
Actual Time
Civil Twilight
Nautical Twilight
Astronomical Twilight
Moon
Length of Visible Light
Length of Day
Tomorrow will be .
, % of the Moon is Illuminated

Today's Extremes

State Highs State Lows

Community

WunderPhotos

Upload Photos

1,792,013 photos uploaded!

WunderBlogs® & News

Nearby

Air Quality

  Air Quality AQ Index Pollutant
Not available.

Snow Depth

Station Depth Elevation

Earthquake Activity

City Distance Mag. Time & Date
Minimum magnitude displayed is 2.5.

Coastal Water Temperatures

Place Temperature

Nearby Weather Stations